ZRH weather

Z├╝rich Airport
Zurich, Canton of Zurich, Switzerland

Public forecast

Using degrees Celsius for public forecast. Weather courtesy of forecast.io.

METAR (pilot weather report)

Retrieved 2017/11/24 13:20 UTC (9 minutes ago):

LSZH 241320Z 26005KT CAVOK 13/05 Q1015 NOSIG

TAF (pilot weather forecast)

Retrieved 2017/11/24 15:33 UTC (0 seconds ago):

TAF LSZH 241425Z 2415/2521 25007KT 9999 BKN070 TX12/2415Z TN03/2518Z TX08/2510Z PROB30 TEMPO 2420/2503 RA BECMG 2508/2510 26013KT TEMPO 2509/2514 28015G30KT RA SCT020 BKN040 BECMG 2514/2516 25008KT PROB40 TEMPO 2514/2521 SHRA SCT030TCU PROB30 TEMPO 2519/2521 4500 TSGS SCT020CB BKN045